sensor_id;sensor_type;location;lat;lon;timestamp;P1;durP1;ratioP1;P2;durP2;ratioP2
19621;SDS011;9958;33.196;-97.114;2023-04-25T00:00:03;1.70;;;1.60;;
19621;SDS011;9958;33.196;-97.114;2023-04-25T00:02:33;1.65;;;1.55;;
19621;SDS011;9958;33.196;-97.114;2023-04-25T00:05:01;2.92;;;1.50;;
19621;SDS011;9958;33.196;-97.114;2023-04-25T00:07:30;1.88;;;1.40;;
19621;SDS011;9958;33.196;-97.114;2023-04-25T00:09:59;1.98;;;1.60;;
19621;SDS011;9958;33.196;-97.114;2023-04-25T00:12:27;2.42;;;1.50;;
19621;SDS011;9958;33.196;-97.114;2023-04-25T00:14:57;2.67;;;1.60;;
19621;SDS011;9958;33.196;-97.114;2023-04-25T00:17:25;1.70;;;1.60;;
19621;SDS011;9958;33.196;-97.114;2023-04-25T00:19:54;2.53;;;1.60;;
19621;SDS011;9958;33.196;-97.114;2023-04-25T00:22:23;1.85;;;1.45;;
19621;SDS011;9958;33.196;-97.114;2023-04-25T00:24:51;3.17;;;1.70;;
19621;SDS011;9958;33.196;-97.114;2023-04-25T00:27:22;1.60;;;1.50;;
19621;SDS011;9958;33.196;-97.114;2023-04-25T00:29:50;1.65;;;1.40;;
19621;SDS011;9958;33.196;-97.114;2023-04-25T00:32:20;1.85;;;1.50;;
19621;SDS011;9958;33.196;-97.114;2023-04-25T00:34:49;2.13;;;1.60;;
19621;SDS011;9958;33.196;-97.114;2023-04-25T00:37:17;1.65;;;1.55;;
19621;SDS011;9958;33.196;-97.114;2023-04-25T00:39:45;1.60;;;1.50;;
19621;SDS011;9958;33.196;-97.114;2023-04-25T00:42:14;3.10;;;1.73;;
19621;SDS011;9958;33.196;-97.114;2023-04-25T00:44:43;3.45;;;1.40;;
19621;SDS011;9958;33.196;-97.114;2023-04-25T00:47:12;1.70;;;1.50;;
19621;SDS011;9958;33.196;-97.114;2023-04-25T00:49:43;1.75;;;1.58;;
19621;SDS011;9958;33.196;-97.114;2023-04-25T00:52:12;1.80;;;1.58;;
19621;SDS011;9958;33.196;-97.114;2023-04-25T00:54:40;3.78;;;1.77;;
19621;SDS011;9958;33.196;-97.114;2023-04-25T00:57:09;2.85;;;1.50;;
19621;SDS011;9958;33.196;-97.114;2023-04-25T00:59:37;1.90;;;1.75;;
19621;SDS011;9958;33.196;-97.114;2023-04-25T01:02:08;1.50;;;1.40;;
19621;SDS011;9958;33.196;-97.114;2023-04-25T01:04:36;2.70;;;1.92;;
19621;SDS011;9958;33.196;-97.114;2023-04-25T01:07:07;1.60;;;1.50;;
19621;SDS011;9958;33.196;-97.114;2023-04-25T01:09:36;2.15;;;1.70;;
19621;SDS011;9958;33.196;-97.114;2023-04-25T01:12:05;2.97;;;1.60;;
19621;SDS011;9958;33.196;-97.114;2023-04-25T01:14:33;1.75;;;1.65;;
19621;SDS011;9958;33.196;-97.114;2023-04-25T01:17:02;1.67;;;1.52;;
19621;SDS011;9958;33.196;-97.114;2023-04-25T01:19:30;2.42;;;1.90;;
19621;SDS011;9958;33.196;-97.114;2023-04-25T01:22:00;2.75;;;1.60;;
19621;SDS011;9958;33.196;-97.114;2023-04-25T01:24:29;3.30;;;1.50;;
19621;SDS011;9958;33.196;-97.114;2023-04-25T01:26:58;1.83;;;1.73;;
19621;SDS011;9958;33.196;-97.114;2023-04-25T01:29:27;1.90;;;1.80;;
19621;SDS011;9958;33.196;-97.114;2023-04-25T01:31:56;1.90;;;1.70;;
19621;SDS011;9958;33.196;-97.114;2023-04-25T01:34:26;2.83;;;1.73;;
19621;SDS011;9958;33.196;-97.114;2023-04-25T01:36:54;2.15;;;1.55;;
19621;SDS011;9958;33.196;-97.114;2023-04-25T01:39:24;4.07;;;2.10;;
19621;SDS011;9958;33.196;-97.114;2023-04-25T01:41:52;5.18;;;1.95;;
19621;SDS011;9958;33.196;-97.114;2023-04-25T01:44:21;2.58;;;1.70;;
19621;SDS011;9958;33.196;-97.114;2023-04-25T01:46:49;1.73;;;1.63;;
19621;SDS011;9958;33.196;-97.114;2023-04-25T01:49:18;1.88;;;1.77;;
19621;SDS011;9958;33.196;-97.114;2023-04-25T01:51:46;2.97;;;1.70;;
19621;SDS011;9958;33.196;-97.114;2023-04-25T01:54:15;2.97;;;2.08;;
19621;SDS011;9958;33.196;-97.114;2023-04-25T01:56:49;2.10;;;1.90;;
19621;SDS011;9958;33.196;-97.114;2023-04-25T01:59:18;2.15;;;1.98;;
19621;SDS011;9958;33.196;-97.114;2023-04-25T02:01:47;2.10;;;1.80;;
19621;SDS011;9958;33.196;-97.114;2023-04-25T02:04:15;4.40;;;1.95;;
19621;SDS011;9958;33.196;-97.114;2023-04-25T02:06:44;2.13;;;1.92;;
19621;SDS011;9958;33.196;-97.114;2023-04-25T02:09:12;2.47;;;1.92;;
19621;SDS011;9958;33.196;-97.114;2023-04-25T02:11:40;1.92;;;1.55;;
19621;SDS011;9958;33.196;-97.114;2023-04-25T02:14:10;2.63;;;1.80;;
19621;SDS011;9958;33.196;-97.114;2023-04-25T02:16:38;3.00;;;1.90;;
19621;SDS011;9958;33.196;-97.114;2023-04-25T02:19:09;1.80;;;1.70;;
19621;SDS011;9958;33.196;-97.114;2023-04-25T02:21:37;2.38;;;2.13;;
19621;SDS011;9958;33.196;-97.114;2023-04-25T02:24:06;2.10;;;1.90;;
19621;SDS011;9958;33.196;-97.114;2023-04-25T02:26:35;2.20;;;1.85;;
19621;SDS011;9958;33.196;-97.114;2023-04-25T02:29:03;1.92;;;1.70;;
19621;SDS011;9958;33.196;-97.114;2023-04-25T02:31:34;3.30;;;2.25;;
19621;SDS011;9958;33.196;-97.114;2023-04-25T02:34:02;3.90;;;2.30;;
19621;SDS011;9958;33.196;-97.114;2023-04-25T02:36:30;2.03;;;1.80;;
19621;SDS011;9958;33.196;-97.114;2023-04-25T02:38:59;1.92;;;1.60;;
19621;SDS011;9958;33.196;-97.114;2023-04-25T02:41:28;2.85;;;1.75;;
19621;SDS011;9958;33.196;-97.114;2023-04-25T02:43:56;1.80;;;1.67;;
19621;SDS011;9958;33.196;-97.114;2023-04-25T02:46:25;1.98;;;1.80;;
19621;SDS011;9958;33.196;-97.114;2023-04-25T02:48:55;3.08;;;1.80;;
19621;SDS011;9958;33.196;-97.114;2023-04-25T02:51:23;1.85;;;1.70;;
19621;SDS011;9958;33.196;-97.114;2023-04-25T02:53:51;2.42;;;1.67;;
19621;SDS011;9958;33.196;-97.114;2023-04-25T02:56:20;3.58;;;2.05;;
19621;SDS011;9958;33.196;-97.114;2023-04-25T02:58:48;2.30;;;2.10;;
19621;SDS011;9958;33.196;-97.114;2023-04-25T03:01:16;3.00;;;1.70;;
19621;SDS011;9958;33.196;-97.114;2023-04-25T03:03:44;3.92;;;2.22;;
19621;SDS011;9958;33.196;-97.114;2023-04-25T03:06:14;4.15;;;2.10;;
19621;SDS011;9958;33.196;-97.114;2023-04-25T03:08:43;2.75;;;2.50;;
19621;SDS011;9958;33.196;-97.114;2023-04-25T03:11:11;2.92;;;2.08;;
19621;SDS011;9958;33.196;-97.114;2023-04-25T03:13:39;3.88;;;2.10;;
19621;SDS011;9958;33.196;-97.114;2023-04-25T03:16:08;2.33;;;1.90;;
19621;SDS011;9958;33.196;-97.114;2023-04-25T03:18:36;1.88;;;1.77;;
19621;SDS011;9958;33.196;-97.114;2023-04-25T03:21:04;2.00;;;1.80;;
19621;SDS011;9958;33.196;-97.114;2023-04-25T03:23:34;4.70;;;2.30;;
19621;SDS011;9958;33.196;-97.114;2023-04-25T03:26:03;2.13;;;1.95;;
19621;SDS011;9958;33.196;-97.114;2023-04-25T03:28:31;2.83;;;1.92;;
19621;SDS011;9958;33.196;-97.114;2023-04-25T03:30:59;4.47;;;2.00;;
19621;SDS011;9958;33.196;-97.114;2023-04-25T03:33:28;1.80;;;1.70;;
19621;SDS011;9958;33.196;-97.114;2023-04-25T03:35:56;2.50;;;2.10;;
19621;SDS011;9958;33.196;-97.114;2023-04-25T03:38:24;2.45;;;2.20;;
19621;SDS011;9958;33.196;-97.114;2023-04-25T03:40:54;2.40;;;1.90;;
19621;SDS011;9958;33.196;-97.114;2023-04-25T03:43:23;2.08;;;1.77;;
19621;SDS011;9958;33.196;-97.114;2023-04-25T03:45:51;2.85;;;2.10;;
19621;SDS011;9958;33.196;-97.114;2023-04-25T03:48:19;4.72;;;1.80;;
19621;SDS011;9958;33.196;-97.114;2023-04-25T03:50:50;2.55;;;2.20;;
19621;SDS011;9958;33.196;-97.114;2023-04-25T03:53:18;2.05;;;1.70;;
19621;SDS011;9958;33.196;-97.114;2023-04-25T03:55:46;2.58;;;2.38;;
19621;SDS011;9958;33.196;-97.114;2023-04-25T03:58:16;2.33;;;2.22;;
19621;SDS011;9958;33.196;-97.114;2023-04-25T04:00:45;1.60;;;1.50;;
19621;SDS011;9958;33.196;-97.114;2023-04-25T04:03:13;2.40;;;1.85;;
19621;SDS011;9958;33.196;-97.114;2023-04-25T04:05:41;2.30;;;2.10;;
19621;SDS011;9958;33.196;-97.114;2023-04-25T04:08:10;3.78;;;2.00;;
19621;SDS011;9958;33.196;-97.114;2023-04-25T04:10:38;1.90;;;1.80;;
19621;SDS011;9958;33.196;-97.114;2023-04-25T04:13:07;3.13;;;2.20;;
19621;SDS011;9958;33.196;-97.114;2023-04-25T04:15:37;3.90;;;2.35;;
19621;SDS011;9958;33.196;-97.114;2023-04-25T04:18:05;3.03;;;2.05;;
19621;SDS011;9958;33.196;-97.114;2023-04-25T04:20:34;3.05;;;2.17;;
19621;SDS011;9958;33.196;-97.114;2023-04-25T04:23:02;2.78;;;2.00;;
19621;SDS011;9958;33.196;-97.114;2023-04-25T04:25:30;2.88;;;2.05;;
19621;SDS011;9958;33.196;-97.114;2023-04-25T04:27:59;1.85;;;1.67;;
19621;SDS011;9958;33.196;-97.114;2023-04-25T04:30:28;2.17;;;1.92;;
19621;SDS011;9958;33.196;-97.114;2023-04-25T04:32:58;2.08;;;1.92;;
19621;SDS011;9958;33.196;-97.114;2023-04-25T04:35:27;3.05;;;1.83;;
19621;SDS011;9958;33.196;-97.114;2023-04-25T04:37:55;1.98;;;1.88;;
19621;SDS011;9958;33.196;-97.114;2023-04-25T04:40:24;2.50;;;2.30;;
19621;SDS011;9958;33.196;-97.114;2023-04-25T04:42:52;2.08;;;1.83;;
19621;SDS011;9958;33.196;-97.114;2023-04-25T04:45:21;3.00;;;2.08;;
19621;SDS011;9958;33.196;-97.114;2023-04-25T04:47:50;3.65;;;1.75;;
19621;SDS011;9958;33.196;-97.114;2023-04-25T04:50:22;3.72;;;2.00;;
19621;SDS011;9958;33.196;-97.114;2023-04-25T04:52:50;2.40;;;1.90;;
19621;SDS011;9958;33.196;-97.114;2023-04-25T04:55:19;3.03;;;1.95;;
19621;SDS011;9958;33.196;-97.114;2023-04-25T04:57:48;3.10;;;2.10;;
19621;SDS011;9958;33.196;-97.114;2023-04-25T05:00:16;4.18;;;1.75;;
19621;SDS011;9958;33.196;-97.114;2023-04-25T05:02:46;3.40;;;1.90;;
19621;SDS011;9958;33.196;-97.114;2023-04-25T05:05:14;2.38;;;1.90;;
19621;SDS011;9958;33.196;-97.114;2023-04-25T05:07:44;3.13;;;1.80;;
19621;SDS011;9958;33.196;-97.114;2023-04-25T05:10:12;2.67;;;2.15;;
19621;SDS011;9958;33.196;-97.114;2023-04-25T05:12:41;1.90;;;1.80;;
19621;SDS011;9958;33.196;-97.114;2023-04-25T05:15:09;2.78;;;2.28;;
19621;SDS011;9958;33.196;-97.114;2023-04-25T05:17:38;1.70;;;1.60;;
19621;SDS011;9958;33.196;-97.114;2023-04-25T05:20:07;2.63;;;2.40;;
19621;SDS011;9958;33.196;-97.114;2023-04-25T05:22:36;2.03;;;1.90;;
19621;SDS011;9958;33.196;-97.114;2023-04-25T05:25:06;7.45;;;2.10;;
19621;SDS011;9958;33.196;-97.114;2023-04-25T05:27:35;4.10;;;2.75;;
19621;SDS011;9958;33.196;-97.114;2023-04-25T05:30:04;3.67;;;2.20;;
19621;SDS011;9958;33.196;-97.114;2023-04-25T05:32:33;3.53;;;2.20;;
19621;SDS011;9958;33.196;-97.114;2023-04-25T05:35:02;6.85;;;2.83;;
19621;SDS011;9958;33.196;-97.114;2023-04-25T05:37:32;2.42;;;1.90;;
19621;SDS011;9958;33.196;-97.114;2023-04-25T05:40:00;2.95;;;2.35;;
19621;SDS011;9958;33.196;-97.114;2023-04-25T05:42:33;2.60;;;1.90;;
19621;SDS011;9958;33.196;-97.114;2023-04-25T05:45:02;2.45;;;2.17;;
19621;SDS011;9958;33.196;-97.114;2023-04-25T05:47:30;2.60;;;2.10;;
19621;SDS011;9958;33.196;-97.114;2023-04-25T05:49:59;2.60;;;1.80;;
19621;SDS011;9958;33.196;-97.114;2023-04-25T05:52:27;2.67;;;2.08;;
19621;SDS011;9958;33.196;-97.114;2023-04-25T05:54:55;2.35;;;2.08;;
19621;SDS011;9958;33.196;-97.114;2023-04-25T05:57:24;2.83;;;2.20;;
19621;SDS011;9958;33.196;-97.114;2023-04-25T05:59:54;3.53;;;2.58;;
19621;SDS011;9958;33.196;-97.114;2023-04-25T06:02:22;2.33;;;2.13;;
19621;SDS011;9958;33.196;-97.114;2023-04-25T06:04:51;2.33;;;2.13;;
19621;SDS011;9958;33.196;-97.114;2023-04-25T06:07:20;2.08;;;1.90;;
19621;SDS011;9958;33.196;-97.114;2023-04-25T06:09:48;2.83;;;2.10;;
19621;SDS011;9958;33.196;-97.114;2023-04-25T06:12:17;2.95;;;2.65;;
19621;SDS011;9958;33.196;-97.114;2023-04-25T06:14:45;3.47;;;2.15;;
19621;SDS011;9958;33.196;-97.114;2023-04-25T06:17:15;3.92;;;2.20;;
19621;SDS011;9958;33.196;-97.114;2023-04-25T06:19:43;1.90;;;1.80;;
19621;SDS011;9958;33.196;-97.114;2023-04-25T06:22:11;2.05;;;1.70;;
19621;SDS011;9958;33.196;-97.114;2023-04-25T06:24:40;2.47;;;2.20;;
19621;SDS011;9958;33.196;-97.114;2023-04-25T06:27:08;5.60;;;2.42;;
19621;SDS011;9958;33.196;-97.114;2023-04-25T06:29:36;2.25;;;2.05;;
19621;SDS011;9958;33.196;-97.114;2023-04-25T06:32:05;2.00;;;1.80;;
19621;SDS011;9958;33.196;-97.114;2023-04-25T06:34:35;2.63;;;1.80;;
19621;SDS011;9958;33.196;-97.114;2023-04-25T06:37:03;2.22;;;2.03;;
19621;SDS011;9958;33.196;-97.114;2023-04-25T06:39:31;2.90;;;2.15;;
19621;SDS011;9958;33.196;-97.114;2023-04-25T06:42:00;3.20;;;2.05;;
19621;SDS011;9958;33.196;-97.114;2023-04-25T06:44:28;3.22;;;2.13;;
19621;SDS011;9958;33.196;-97.114;2023-04-25T06:46:57;6.20;;;2.20;;
19621;SDS011;9958;33.196;-97.114;2023-04-25T06:49:25;2.60;;;2.05;;
19621;SDS011;9958;33.196;-97.114;2023-04-25T06:51:55;2.83;;;1.88;;
19621;SDS011;9958;33.196;-97.114;2023-04-25T06:54:23;2.38;;;2.10;;
19621;SDS011;9958;33.196;-97.114;2023-04-25T06:56:52;1.90;;;1.80;;
19621;SDS011;9958;33.196;-97.114;2023-04-25T06:59:21;3.20;;;2.38;;
19621;SDS011;9958;33.196;-97.114;2023-04-25T07:01:49;2.90;;;1.98;;
19621;SDS011;9958;33.196;-97.114;2023-04-25T07:04:18;4.53;;;2.20;;
19621;SDS011;9958;33.196;-97.114;2023-04-25T07:06:46;3.35;;;2.10;;
19621;SDS011;9958;33.196;-97.114;2023-04-25T07:09:16;2.03;;;1.88;;
19621;SDS011;9958;33.196;-97.114;2023-04-25T07:11:44;2.47;;;2.00;;
19621;SDS011;9958;33.196;-97.114;2023-04-25T07:14:13;4.40;;;2.25;;
19621;SDS011;9958;33.196;-97.114;2023-04-25T07:16:41;2.30;;;2.10;;
19621;SDS011;9958;33.196;-97.114;2023-04-25T07:19:10;3.67;;;1.98;;
19621;SDS011;9958;33.196;-97.114;2023-04-25T07:21:38;3.38;;;1.90;;
19621;SDS011;9958;33.196;-97.114;2023-04-25T07:24:06;2.53;;;2.03;;
19621;SDS011;9958;33.196;-97.114;2023-04-25T07:26:36;3.33;;;1.85;;
19621;SDS011;9958;33.196;-97.114;2023-04-25T07:29:05;2.38;;;2.05;;
19621;SDS011;9958;33.196;-97.114;2023-04-25T07:31:33;1.83;;;1.73;;
19621;SDS011;9958;33.196;-97.114;2023-04-25T07:34:01;4.85;;;2.10;;
19621;SDS011;9958;33.196;-97.114;2023-04-25T07:36:31;2.00;;;1.80;;
19621;SDS011;9958;33.196;-97.114;2023-04-25T07:38:59;2.22;;;1.98;;
19621;SDS011;9958;33.196;-97.114;2023-04-25T07:41:27;2.28;;;1.95;;
19621;SDS011;9958;33.196;-97.114;2023-04-25T07:43:57;3.28;;;2.08;;
19621;SDS011;9958;33.196;-97.114;2023-04-25T07:46:26;2.10;;;1.90;;
19621;SDS011;9958;33.196;-97.114;2023-04-25T07:48:54;2.10;;;1.90;;
19621;SDS011;9958;33.196;-97.114;2023-04-25T07:51:22;2.17;;;2.00;;
19621;SDS011;9958;33.196;-97.114;2023-04-25T07:53:51;2.55;;;2.00;;
19621;SDS011;9958;33.196;-97.114;2023-04-25T07:56:19;2.05;;;1.95;;
19621;SDS011;9958;33.196;-97.114;2023-04-25T07:58:47;2.40;;;1.85;;
19621;SDS011;9958;33.196;-97.114;2023-04-25T08:01:18;1.95;;;1.83;;
19621;SDS011;9958;33.196;-97.114;2023-04-25T08:03:47;1.70;;;1.60;;
19621;SDS011;9958;33.196;-97.114;2023-04-25T08:06:15;3.08;;;2.15;;
19621;SDS011;9958;33.196;-97.114;2023-04-25T08:08:44;2.45;;;2.15;;
19621;SDS011;9958;33.196;-97.114;2023-04-25T08:11:13;2.35;;;1.83;;
19621;SDS011;9958;33.196;-97.114;2023-04-25T08:13:41;2.13;;;1.90;;
19621;SDS011;9958;33.196;-97.114;2023-04-25T08:16:09;5.78;;;2.00;;
19621;SDS011;9958;33.196;-97.114;2023-04-25T08:18:39;3.00;;;2.00;;
19621;SDS011;9958;33.196;-97.114;2023-04-25T08:21:08;3.83;;;2.00;;
19621;SDS011;9958;33.196;-97.114;2023-04-25T08:23:36;2.58;;;1.80;;
19621;SDS011;9958;33.196;-97.114;2023-04-25T08:26:05;2.17;;;1.83;;
19621;SDS011;9958;33.196;-97.114;2023-04-25T08:28:33;3.35;;;2.00;;
19621;SDS011;9958;33.196;-97.114;2023-04-25T08:31:02;2.05;;;1.95;;
19621;SDS011;9958;33.196;-97.114;2023-04-25T08:33:30;3.83;;;2.40;;
19621;SDS011;9958;33.196;-97.114;2023-04-25T08:36:00;2.20;;;2.00;;
19621;SDS011;9958;33.196;-97.114;2023-04-25T08:38:29;2.55;;;2.10;;
19621;SDS011;9958;33.196;-97.114;2023-04-25T08:40:57;2.10;;;1.95;;
19621;SDS011;9958;33.196;-97.114;2023-04-25T08:43:27;2.70;;;2.05;;
19621;SDS011;9958;33.196;-97.114;2023-04-25T08:45:58;2.13;;;1.90;;
19621;SDS011;9958;33.196;-97.114;2023-04-25T08:48:27;2.70;;;2.33;;
19621;SDS011;9958;33.196;-97.114;2023-04-25T08:50:56;2.08;;;1.88;;
19621;SDS011;9958;33.196;-97.114;2023-04-25T08:53:27;3.20;;;2.38;;
19621;SDS011;9958;33.196;-97.114;2023-04-25T08:55:57;3.17;;;2.20;;
19621;SDS011;9958;33.196;-97.114;2023-04-25T08:58:27;6.68;;;2.20;;
19621;SDS011;9958;33.196;-97.114;2023-04-25T09:00:56;2.80;;;2.38;;
19621;SDS011;9958;33.196;-97.114;2023-04-25T09:03:25;4.57;;;2.10;;
19621;SDS011;9958;33.196;-97.114;2023-04-25T09:05:54;2.67;;;2.30;;
19621;SDS011;9958;33.196;-97.114;2023-04-25T09:08:23;4.03;;;2.20;;
19621;SDS011;9958;33.196;-97.114;2023-04-25T09:10:53;2.22;;;2.10;;
19621;SDS011;9958;33.196;-97.114;2023-04-25T09:13:24;2.85;;;2.10;;
19621;SDS011;9958;33.196;-97.114;2023-04-25T09:15:54;3.20;;;2.15;;
19621;SDS011;9958;33.196;-97.114;2023-04-25T09:18:23;4.85;;;2.50;;
19621;SDS011;9958;33.196;-97.114;2023-04-25T09:20:52;1.95;;;1.85;;
19621;SDS011;9958;33.196;-97.114;2023-04-25T09:23:21;2.75;;;2.30;;
19621;SDS011;9958;33.196;-97.114;2023-04-25T09:25:50;2.58;;;2.08;;
19621;SDS011;9958;33.196;-97.114;2023-04-25T09:28:23;3.50;;;2.10;;
19621;SDS011;9958;33.196;-97.114;2023-04-25T09:30:54;4.85;;;2.10;;
19621;SDS011;9958;33.196;-97.114;2023-04-25T09:33:27;2.75;;;1.92;;
19621;SDS011;9958;33.196;-97.114;2023-04-25T09:36:01;2.65;;;1.85;;
19621;SDS011;9958;33.196;-97.114;2023-04-25T09:38:31;2.35;;;2.15;;
19621;SDS011;9958;33.196;-97.114;2023-04-25T09:41:01;4.18;;;2.25;;
19621;SDS011;9958;33.196;-97.114;2023-04-25T09:43:30;2.42;;;2.22;;
19621;SDS011;9958;33.196;-97.114;2023-04-25T09:45:58;3.67;;;2.35;;
19621;SDS011;9958;33.196;-97.114;2023-04-25T09:48:27;2.88;;;2.45;;
19621;SDS011;9958;33.196;-97.114;2023-04-25T09:51:05;7.07;;;2.28;;
19621;SDS011;9958;33.196;-97.114;2023-04-25T09:53:35;3.85;;;2.10;;
19621;SDS011;9958;33.196;-97.114;2023-04-25T09:56:06;2.83;;;2.42;;
19621;SDS011;9958;33.196;-97.114;2023-04-25T09:58:35;2.30;;;2.13;;
19621;SDS011;9958;33.196;-97.114;2023-04-25T10:01:05;4.97;;;2.70;;
19621;SDS011;9958;33.196;-97.114;2023-04-25T10:03:34;4.22;;;2.28;;
19621;SDS011;9958;33.196;-97.114;2023-04-25T10:06:06;4.68;;;2.05;;
19621;SDS011;9958;33.196;-97.114;2023-04-25T10:08:36;3.65;;;2.47;;
19621;SDS011;9958;33.196;-97.114;2023-04-25T10:11:08;2.80;;;2.55;;
19621;SDS011;9958;33.196;-97.114;2023-04-25T10:13:36;2.40;;;2.20;;
19621;SDS011;9958;33.196;-97.114;2023-04-25T10:16:05;2.55;;;2.35;;
19621;SDS011;9958;33.196;-97.114;2023-04-25T10:18:33;2.38;;;2.17;;
19621;SDS011;9958;33.196;-97.114;2023-04-25T10:21:03;3.03;;;2.40;;
19621;SDS011;9958;33.196;-97.114;2023-04-25T10:23:32;2.50;;;2.30;;
19621;SDS011;9958;33.196;-97.114;2023-04-25T10:26:01;3.20;;;2.40;;
19621;SDS011;9958;33.196;-97.114;2023-04-25T10:28:31;2.50;;;2.30;;
19621;SDS011;9958;33.196;-97.114;2023-04-25T10:31:22;2.40;;;2.20;;
19621;SDS011;9958;33.196;-97.114;2023-04-25T10:33:51;2.20;;;2.00;;
19621;SDS011;9958;33.196;-97.114;2023-04-25T10:36:20;2.80;;;2.03;;
19621;SDS011;9958;33.196;-97.114;2023-04-25T10:38:50;2.40;;;2.20;;
19621;SDS011;9958;33.196;-97.114;2023-04-25T10:41:19;2.67;;;2.47;;
19621;SDS011;9958;33.196;-97.114;2023-04-25T10:43:58;5.20;;;2.60;;
19621;SDS011;9958;33.196;-97.114;2023-04-25T10:46:28;2.22;;;2.03;;
19621;SDS011;9958;33.196;-97.114;2023-04-25T10:48:57;3.25;;;2.38;;
19621;SDS011;9958;33.196;-97.114;2023-04-25T10:51:26;2.40;;;2.20;;
19621;SDS011;9958;33.196;-97.114;2023-04-25T10:53:56;2.72;;;2.35;;
19621;SDS011;9958;33.196;-97.114;2023-04-25T10:56:26;2.80;;;2.50;;
19621;SDS011;9958;33.196;-97.114;2023-04-25T10:59:10;2.35;;;2.15;;
19621;SDS011;9958;33.196;-97.114;2023-04-25T11:01:39;3.92;;;2.90;;
19621;SDS011;9958;33.196;-97.114;2023-04-25T11:04:21;2.92;;;2.40;;
19621;SDS011;9958;33.196;-97.114;2023-04-25T11:06:55;2.17;;;1.98;;
19621;SDS011;9958;33.196;-97.114;2023-04-25T11:09:32;4.00;;;2.30;;
19621;SDS011;9958;33.196;-97.114;2023-04-25T11:12:01;6.82;;;2.45;;
19621;SDS011;9958;33.196;-97.114;2023-04-25T11:14:31;2.50;;;2.30;;
19621;SDS011;9958;33.196;-97.114;2023-04-25T11:16:59;2.75;;;2.30;;
19621;SDS011;9958;33.196;-97.114;2023-04-25T11:19:28;2.50;;;2.15;;
19621;SDS011;9958;33.196;-97.114;2023-04-25T11:21:56;2.33;;;2.13;;
19621;SDS011;9958;33.196;-97.114;2023-04-25T11:24:26;2.33;;;2.13;;
19621;SDS011;9958;33.196;-97.114;2023-04-25T11:26:54;3.53;;;2.35;;
19621;SDS011;9958;33.196;-97.114;2023-04-25T11:29:23;3.75;;;2.17;;
19621;SDS011;9958;33.196;-97.114;2023-04-25T11:31:55;2.42;;;2.22;;
19621;SDS011;9958;33.196;-97.114;2023-04-25T11:34:25;2.42;;;2.10;;
19621;SDS011;9958;33.196;-97.114;2023-04-25T11:36:56;2.95;;;2.63;;
19621;SDS011;9958;33.196;-97.114;2023-04-25T11:39:25;3.10;;;2.20;;
19621;SDS011;9958;33.196;-97.114;2023-04-25T11:41:54;3.42;;;2.58;;
19621;SDS011;9958;33.196;-97.114;2023-04-25T11:44:22;4.60;;;2.55;;
19621;SDS011;9958;33.196;-97.114;2023-04-25T11:46:50;3.67;;;2.17;;
19621;SDS011;9958;33.196;-97.114;2023-04-25T11:49:20;2.55;;;2.28;;
19621;SDS011;9958;33.196;-97.114;2023-04-25T11:51:50;2.47;;;2.28;;
19621;SDS011;9958;33.196;-97.114;2023-04-25T11:54:18;3.58;;;2.33;;
19621;SDS011;9958;33.196;-97.114;2023-04-25T11:56:46;4.22;;;2.70;;
19621;SDS011;9958;33.196;-97.114;2023-04-25T11:59:15;2.58;;;2.38;;
19621;SDS011;9958;33.196;-97.114;2023-04-25T12:01:47;4.00;;;2.55;;
19621;SDS011;9958;33.196;-97.114;2023-04-25T12:04:16;2.55;;;2.35;;
19621;SDS011;9958;33.196;-97.114;2023-04-25T12:06:47;2.60;;;2.20;;
19621;SDS011;9958;33.196;-97.114;2023-04-25T12:09:17;4.25;;;2.67;;
19621;SDS011;9958;33.196;-97.114;2023-04-25T12:11:48;2.83;;;2.20;;
19621;SDS011;9958;33.196;-97.114;2023-04-25T12:14:23;3.78;;;2.50;;
19621;SDS011;9958;33.196;-97.114;2023-04-25T12:16:52;2.47;;;2.22;;
19621;SDS011;9958;33.196;-97.114;2023-04-25T12:19:23;4.10;;;2.30;;
19621;SDS011;9958;33.196;-97.114;2023-04-25T12:21:53;3.92;;;2.38;;
19621;SDS011;9958;33.196;-97.114;2023-04-25T12:24:22;3.88;;;2.60;;
19621;SDS011;9958;33.196;-97.114;2023-04-25T12:26:52;6.30;;;2.53;;
19621;SDS011;9958;33.196;-97.114;2023-04-25T12:29:26;3.42;;;2.60;;
19621;SDS011;9958;33.196;-97.114;2023-04-25T12:31:56;2.35;;;2.15;;
19621;SDS011;9958;33.196;-97.114;2023-04-25T12:34:25;2.80;;;2.58;;
19621;SDS011;9958;33.196;-97.114;2023-04-25T12:36:55;4.78;;;2.63;;
19621;SDS011;9958;33.196;-97.114;2023-04-25T12:39:24;3.95;;;2.65;;
19621;SDS011;9958;33.196;-97.114;2023-04-25T12:41:53;2.58;;;2.35;;
19621;SDS011;9958;33.196;-97.114;2023-04-25T12:44:21;2.83;;;2.53;;
19621;SDS011;9958;33.196;-97.114;2023-04-25T12:46:50;2.92;;;2.60;;
19621;SDS011;9958;33.196;-97.114;2023-04-25T12:49:18;4.95;;;3.30;;
19621;SDS011;9958;33.196;-97.114;2023-04-25T12:51:46;5.80;;;3.33;;
19621;SDS011;9958;33.196;-97.114;2023-04-25T12:54:16;3.45;;;3.10;;
19621;SDS011;9958;33.196;-97.114;2023-04-25T12:56:45;3.67;;;3.35;;
19621;SDS011;9958;33.196;-97.114;2023-04-25T12:59:13;5.63;;;3.60;;
19621;SDS011;9958;33.196;-97.114;2023-04-25T13:01:42;5.38;;;3.60;;
19621;SDS011;9958;33.196;-97.114;2023-04-25T13:04:10;4.93;;;3.83;;
19621;SDS011;9958;33.196;-97.114;2023-04-25T13:06:39;6.07;;;3.67;;
19621;SDS011;9958;33.196;-97.114;2023-04-25T13:09:07;4.30;;;3.70;;
19621;SDS011;9958;33.196;-97.114;2023-04-25T13:11:39;4.47;;;3.58;;
19621;SDS011;9958;33.196;-97.114;2023-04-25T13:14:07;6.13;;;4.00;;
19621;SDS011;9958;33.196;-97.114;2023-04-25T13:16:35;7.97;;;3.80;;
19621;SDS011;9958;33.196;-97.114;2023-04-25T13:19:04;4.80;;;3.75;;
19621;SDS011;9958;33.196;-97.114;2023-04-25T13:21:33;4.45;;;3.25;;
19621;SDS011;9958;33.196;-97.114;2023-04-25T13:24:02;5.72;;;4.55;;
19621;SDS011;9958;33.196;-97.114;2023-04-25T13:26:30;6.38;;;4.15;;
19621;SDS011;9958;33.196;-97.114;2023-04-25T13:29:00;4.53;;;3.72;;
19621;SDS011;9958;33.196;-97.114;2023-04-25T13:31:29;3.53;;;3.22;;
19621;SDS011;9958;33.196;-97.114;2023-04-25T13:33:58;11.82;;;3.50;;
19621;SDS011;9958;33.196;-97.114;2023-04-25T13:36:26;3.85;;;3.45;;
19621;SDS011;9958;33.196;-97.114;2023-04-25T13:38:54;6.55;;;4.05;;
19621;SDS011;9958;33.196;-97.114;2023-04-25T13:41:23;3.97;;;3.25;;
19621;SDS011;9958;33.196;-97.114;2023-04-25T13:43:51;5.55;;;3.90;;
19621;SDS011;9958;33.196;-97.114;2023-04-25T13:46:21;3.65;;;2.80;;
19621;SDS011;9958;33.196;-97.114;2023-04-25T13:48:49;6.50;;;3.63;;
19621;SDS011;9958;33.196;-97.114;2023-04-25T13:51:17;4.75;;;3.40;;
19621;SDS011;9958;33.196;-97.114;2023-04-25T13:53:46;4.38;;;3.47;;
19621;SDS011;9958;33.196;-97.114;2023-04-25T13:56:14;5.53;;;3.15;;
19621;SDS011;9958;33.196;-97.114;2023-04-25T13:58:44;4.90;;;2.90;;
19621;SDS011;9958;33.196;-97.114;2023-04-25T14:01:13;4.80;;;3.17;;
19621;SDS011;9958;33.196;-97.114;2023-04-25T14:03:43;5.45;;;3.38;;
19621;SDS011;9958;33.196;-97.114;2023-04-25T14:06:11;4.47;;;2.72;;
19621;SDS011;9958;33.196;-97.114;2023-04-25T14:08:46;3.65;;;3.30;;
19621;SDS011;9958;33.196;-97.114;2023-04-25T14:11:14;4.50;;;2.90;;
19621;SDS011;9958;33.196;-97.114;2023-04-25T14:13:44;4.40;;;2.80;;
19621;SDS011;9958;33.196;-97.114;2023-04-25T14:16:12;3.30;;;3.00;;
19621;SDS011;9958;33.196;-97.114;2023-04-25T14:18:41;4.68;;;3.50;;
19621;SDS011;9958;33.196;-97.114;2023-04-25T14:21:11;3.03;;;2.67;;
19621;SDS011;9958;33.196;-97.114;2023-04-25T14:23:39;4.70;;;3.13;;
19621;SDS011;9958;33.196;-97.114;2023-04-25T14:26:07;3.22;;;2.92;;
19621;SDS011;9958;33.196;-97.114;2023-04-25T14:28:38;3.95;;;3.20;;
19621;SDS011;9958;33.196;-97.114;2023-04-25T14:31:06;4.32;;;3.30;;
19621;SDS011;9958;33.196;-97.114;2023-04-25T14:33:34;7.82;;;3.17;;
19621;SDS011;9958;33.196;-97.114;2023-04-25T14:36:08;4.13;;;2.70;;
19621;SDS011;9958;33.196;-97.114;2023-04-25T14:38:37;4.82;;;3.30;;
19621;SDS011;9958;33.196;-97.114;2023-04-25T14:41:05;5.93;;;3.30;;
19621;SDS011;9958;33.196;-97.114;2023-04-25T14:43:33;3.83;;;3.35;;